Time;durP1;ratioP1;P1;durP2;ratioP2;P2;SDS_P1;SDS_P2;PMS_P1;PMS_P2;Temp;Humidity;BMP_temperature;BMP_pressure;BME280_temperature;BME280_humidity;BME280_pressure;Samples;Min_cycle;Max_cycle;Signal;HPM_P1;HPM_P2
2022/01/26 00:00:18;;;;;;;89.70;32.83;;;3.70;95.10;;;;;;5002332;28;20181;-92
2022/01/26 00:05:45;;;;;;;82.50;29.40;;;3.70;95.10;;;;;;5036512;28;20244;-92
2022/01/26 00:08:11;;;;;;;86.20;28.93;;;3.70;95.10;;;;;;5021084;28;20266;-93
2022/01/26 00:10:36;;;;;;;80.80;31.00;;;3.70;95.10;;;;;;5030284;28;20177;-93
2022/01/26 00:13:02;;;;;;;88.70;31.60;;;3.70;95.20;;;;;;5037328;28;20246;-93
2022/01/26 00:15:30;;;;;;;83.17;29.60;;;3.70;95.20;;;;;;5035958;28;20177;-92
2022/01/26 00:17:56;;;;;;;84.17;29.30;;;3.70;95.20;;;;;;5035484;28;20200;-93
2022/01/26 00:20:27;;;;;;;60.80;21.03;;;3.70;95.20;;;;;;5037443;28;20187;-93
2022/01/26 00:23:01;;;;;;;73.37;27.70;;;3.70;95.20;;;;;;5031999;28;20180;-92
2022/01/26 00:26:00;;;;;;;89.50;30.97;;;3.70;95.10;;;;;;5028473;28;20183;-92
2022/01/26 00:28:56;;;;;;;85.47;29.77;;;3.70;95.10;;;;;;5030396;28;20208;-93
2022/01/26 00:39:32;;;;;;;73.77;26.87;;;3.70;95.20;;;;;;5056157;28;20171;-92
2022/01/26 00:41:59;;;;;;;79.87;29.63;;;3.70;95.20;;;;;;5030177;28;20203;-93
2022/01/26 00:44:35;;;;;;;78.10;29.57;;;3.70;95.20;;;;;;5035545;28;20165;-94
2022/01/26 00:47:01;;;;;;;83.30;31.90;;;3.70;95.20;;;;;;5035444;28;20204;-93
2022/01/26 00:49:27;;;;;;;81.80;29.43;;;3.70;95.20;;;;;;5040873;28;20212;-93
2022/01/26 00:51:54;;;;;;;75.07;27.70;;;3.80;95.20;;;;;;5039389;28;20188;-94
2022/01/26 00:54:20;;;;;;;86.13;30.47;;;3.70;95.10;;;;;;5040503;28;20240;-94
2022/01/26 00:56:45;;;;;;;73.70;28.53;;;3.80;95.20;;;;;;5040411;28;20185;-92
2022/01/26 00:59:12;;;;;;;54.03;21.83;;;3.80;95.20;;;;;;5038728;28;20223;-93
2022/01/26 01:01:37;;;;;;;88.47;31.77;;;3.80;95.20;;;;;;5036582;28;20173;-94
2022/01/26 01:04:03;;;;;;;76.57;30.13;;;3.80;95.20;;;;;;5041363;28;20261;-93
2022/01/26 01:06:39;;;;;;;80.23;29.63;;;3.80;95.20;;;;;;5040049;28;20183;-92
2022/01/26 01:09:05;;;;;;;72.53;26.87;;;3.80;95.20;;;;;;5038883;28;20226;-93
2022/01/26 01:11:31;;;;;;;83.40;31.50;;;3.70;95.20;;;;;;5040387;28;20169;-95
2022/01/26 01:13:58;;;;;;;81.07;29.83;;;3.70;95.20;;;;;;5041215;28;20220;-94
2022/01/26 01:16:24;;;;;;;75.27;29.03;;;3.80;95.30;;;;;;5040116;28;20168;-93
2022/01/26 01:24:26;;;;;;;80.37;31.53;;;3.80;95.30;;;;;;5058626;28;20215;-94
2022/01/26 01:27:08;;;;;;;85.50;30.03;;;3.80;95.30;;;;;;5040581;28;20156;-93
2022/01/26 01:32:11;;;;;;;82.87;30.63;;;3.80;95.30;;;;;;5057000;28;20195;-94
2022/01/26 01:34:38;;;;;;;94.50;34.07;;;3.80;95.30;;;;;;5038335;28;20227;-92
2022/01/26 01:37:09;;;;;;;83.50;31.77;;;3.80;95.30;;;;;;5040348;28;20570;-96
2022/01/26 01:39:37;;;;;;;87.07;34.17;;;3.80;95.40;;;;;;5039329;28;20176;-94
2022/01/26 01:42:05;;;;;;;88.83;34.03;;;3.70;95.40;;;;;;5038398;28;20185;-94
2022/01/26 01:44:31;;;;;;;84.47;31.57;;;3.80;95.40;;;;;;5042462;28;20180;-93
2022/01/26 01:46:57;;;;;;;88.30;33.97;;;3.70;95.40;;;;;;5044261;28;20190;-92
2022/01/26 01:49:24;;;;;;;82.30;33.73;;;3.80;95.50;;;;;;5037970;28;20240;-92
2022/01/26 01:51:59;;;;;;;88.10;35.57;;;3.80;95.50;;;;;;5023523;28;20184;-91
2022/01/26 01:54:25;;;;;;;85.17;32.00;;;3.80;95.50;;;;;;5022366;28;20183;-92
2022/01/26 01:56:58;;;;;;;92.67;34.87;;;3.80;95.50;;;;;;5036186;28;20224;-92
2022/01/26 01:59:32;;;;;;;90.17;33.47;;;3.80;95.50;;;;;;5042767;28;20184;-93
2022/01/26 02:01:59;;;;;;;100.23;37.27;;;3.80;95.50;;;;;;5042360;28;20171;-93
2022/01/26 02:04:26;;;;;;;111.40;40.40;;;3.80;95.50;;;;;;5041631;28;20177;-92
2022/01/26 02:06:52;;;;;;;111.27;39.30;;;3.80;95.50;;;;;;5041080;28;20184;-93
2022/01/26 02:09:18;;;;;;;107.93;39.03;;;3.80;95.50;;;;;;5039860;28;20243;-93
2022/01/26 02:11:46;;;;;;;108.77;40.23;;;3.80;95.50;;;;;;5040595;28;20201;-92
2022/01/26 02:14:20;;;;;;;108.57;39.13;;;3.80;95.40;;;;;;5040515;28;20173;-96
2022/01/26 02:55:38;;;;;;;103.67;38.47;;;3.70;95.20;;;;;;5060750;28;20160;-95
2022/01/26 03:00:48;;;;;;;100.00;36.37;;;3.70;95.20;;;;;;5060751;28;20157;-94
2022/01/26 03:05:47;;;;;;;80.67;29.77;;;3.70;95.20;;;;;;5060577;28;20183;-96
2022/01/26 03:08:13;;;;;;;113.33;40.70;;;3.60;95.10;;;;;;5043203;28;20219;-95
2022/01/26 03:10:48;;;;;;;115.87;42.00;;;3.60;95.10;;;;;;5043305;28;20165;-94
2022/01/26 03:13:22;;;;;;;117.97;41.43;;;3.70;95.10;;;;;;5043321;28;20144;-95
2022/01/26 03:15:56;;;;;;;99.70;37.47;;;3.70;95.10;;;;;;5043375;28;20157;-96
2022/01/26 03:21:08;;;;;;;111.90;41.80;;;3.60;95.00;;;;;;5060301;28;20172;-95
2022/01/26 03:34:18;;;;;;;94.37;32.40;;;3.60;94.90;;;;;;5059883;28;20152;-95
2022/01/26 03:36:52;;;;;;;104.93;37.93;;;3.60;94.80;;;;;;5042840;28;20160;-95
2022/01/26 03:39:20;;;;;;;98.90;37.03;;;3.60;94.80;;;;;;5042860;28;20189;-95
2022/01/26 03:41:54;;;;;;;78.10;30.07;;;3.60;94.80;;;;;;5042502;28;20203;-94
2022/01/26 03:44:20;;;;;;;102.77;37.73;;;3.60;94.80;;;;;;5042817;28;20176;-94
2022/01/26 03:46:47;;;;;;;91.07;34.27;;;3.60;94.70;;;;;;5042659;28;20161;-95
2022/01/26 03:49:14;;;;;;;99.07;37.50;;;3.60;94.70;;;;;;5042493;28;20239;-94
2022/01/26 03:51:40;;;;;;;93.97;35.60;;;3.50;94.70;;;;;;5042520;28;20172;-95
2022/01/26 03:54:09;;;;;;;102.47;35.47;;;3.60;94.70;;;;;;5042597;28;20195;-94
2022/01/26 03:56:35;;;;;;;93.07;34.00;;;3.50;94.70;;;;;;5042395;28;20183;-94
2022/01/26 03:59:01;;;;;;;79.07;29.80;;;3.50;94.70;;;;;;5042428;28;20185;-94
2022/01/26 04:01:27;;;;;;;88.80;32.33;;;3.50;94.70;;;;;;5042098;28;20169;-93
2022/01/26 04:03:53;;;;;;;78.63;29.33;;;3.50;94.60;;;;;;5042055;28;20180;-93
2022/01/26 04:06:20;;;;;;;75.80;29.53;;;3.50;94.50;;;;;;5042034;28;20160;-95
2022/01/26 04:08:46;;;;;;;85.63;31.97;;;3.50;94.60;;;;;;5041889;28;20212;-96
2022/01/26 04:13:45;;;;;;;83.87;31.63;;;3.50;94.60;;;;;;5059108;28;20153;-95
2022/01/26 04:16:11;;;;;;;84.07;31.63;;;3.50;94.60;;;;;;5041986;28;20169;-93
2022/01/26 04:18:39;;;;;;;79.23;29.63;;;3.50;94.60;;;;;;5041580;28;20234;-93
2022/01/26 04:23:49;;;;;;;77.50;30.13;;;3.50;94.60;;;;;;5058991;28;20141;-94
2022/01/26 04:26:18;;;;;;;74.10;26.93;;;3.50;94.60;;;;;;5042268;28;20157;-94
2022/01/26 04:28:51;;;;;;;81.43;31.63;;;3.50;94.60;;;;;;5041933;28;20200;-94
2022/01/26 04:31:19;;;;;;;83.80;31.93;;;3.50;94.60;;;;;;5041683;28;20161;-94
2022/01/26 04:33:45;;;;;;;81.37;28.77;;;3.50;94.60;;;;;;5041751;28;20169;-95
2022/01/26 04:36:15;;;;;;;89.23;31.50;;;3.50;94.50;;;;;;5041920;28;20182;-93
2022/01/26 04:38:46;;;;;;;81.30;29.47;;;3.40;94.50;;;;;;5041907;28;20212;-93
2022/01/26 04:41:37;;;;;;;78.83;31.00;;;3.40;94.50;;;;;;5041818;28;20196;-93
2022/01/26 04:44:10;;;;;;;77.83;31.60;;;3.50;94.50;;;;;;5041636;28;20179;-94
2022/01/26 04:46:36;;;;;;;85.67;31.70;;;3.40;94.50;;;;;;5041592;28;20161;-94
2022/01/26 04:49:02;;;;;;;90.37;33.60;;;3.40;94.50;;;;;;5041415;28;20219;-94
2022/01/26 04:51:28;;;;;;;78.40;28.83;;;3.50;94.50;;;;;;5041620;28;20174;-95
2022/01/26 04:53:54;;;;;;;82.83;29.77;;;3.50;94.50;;;;;;5041557;28;20169;-95
2022/01/26 04:56:19;;;;;;;83.90;31.53;;;3.50;94.50;;;;;;5041572;28;20188;-93
2022/01/26 04:58:45;;;;;;;81.13;31.23;;;3.40;94.40;;;;;;5041465;28;20210;-95
2022/01/26 05:01:11;;;;;;;83.37;32.33;;;3.50;94.50;;;;;;5041662;28;20184;-95
2022/01/26 05:03:36;;;;;;;78.77;29.03;;;3.40;94.50;;;;;;5041593;28;20188;-93
2022/01/26 05:06:03;;;;;;;74.43;27.90;;;3.40;94.50;;;;;;5041614;28;20172;-94
2022/01/26 05:08:29;;;;;;;85.07;32.57;;;3.40;94.50;;;;;;5041122;28;20208;-93
2022/01/26 05:10:54;;;;;;;90.27;34.60;;;3.40;94.50;;;;;;5041363;28;20177;-93
2022/01/26 05:13:20;;;;;;;76.17;30.40;;;3.40;94.50;;;;;;5041376;28;20169;-93
2022/01/26 05:15:46;;;;;;;84.10;31.47;;;3.50;94.50;;;;;;5041418;28;20236;-93
2022/01/26 05:18:12;;;;;;;84.97;32.80;;;3.40;94.40;;;;;;5044574;28;20184;-94
2022/01/26 05:20:38;;;;;;;87.50;30.13;;;3.40;94.40;;;;;;5045235;28;20180;-94
2022/01/26 05:23:03;;;;;;;90.00;31.40;;;3.50;94.50;;;;;;5045237;28;20196;-93
2022/01/26 05:25:29;;;;;;;78.73;30.07;;;3.40;94.40;;;;;;5044897;28;20181;-95
2022/01/26 05:27:55;;;;;;;90.97;33.70;;;3.40;94.40;;;;;;5044935;28;20197;-95
2022/01/26 05:30:21;;;;;;;84.93;31.50;;;3.50;94.50;;;;;;5045164;28;20224;-94
2022/01/26 05:32:46;;;;;;;87.23;30.43;;;3.40;94.50;;;;;;5045147;28;20224;-93
2022/01/26 05:35:12;;;;;;;83.30;31.37;;;3.40;94.50;;;;;;5045061;28;20188;-94
2022/01/26 05:37:39;;;;;;;88.93;33.73;;;3.40;94.50;;;;;;5044526;28;20185;-96
2022/01/26 05:40:06;;;;;;;90.60;32.77;;;3.40;94.50;;;;;;5044768;28;20176;-95
2022/01/26 05:42:34;;;;;;;90.47;34.07;;;3.40;94.50;;;;;;5044854;28;20165;-95
2022/01/26 05:45:03;;;;;;;92.87;33.90;;;3.40;94.50;;;;;;5044914;28;20150;-95
2022/01/26 05:47:32;;;;;;;80.97;32.20;;;3.50;94.60;;;;;;5044841;28;20264;-94
2022/01/26 05:49:58;;;;;;;87.83;33.50;;;3.40;94.50;;;;;;5044724;28;20223;-95
2022/01/26 05:52:23;;;;;;;92.00;33.37;;;3.40;94.50;;;;;;5044715;28;20188;-95
2022/01/26 05:54:49;;;;;;;79.87;30.97;;;3.40;94.40;;;;;;5044588;28;20191;-93
2022/01/26 05:57:15;;;;;;;81.90;31.73;;;3.40;94.40;;;;;;5044284;28;20190;-94
2022/01/26 05:59:40;;;;;;;64.43;22.10;;;3.40;94.40;;;;;;5044595;28;20176;-94
2022/01/26 06:02:06;;;;;;;91.50;34.23;;;3.40;94.40;;;;;;5044627;28;20165;-94
2022/01/26 06:04:32;;;;;;;88.53;32.47;;;3.40;94.30;;;;;;5044388;28;20216;-92
2022/01/26 06:06:58;;;;;;;63.60;23.07;;;3.40;94.30;;;;;;5044057;28;20203;-94
2022/01/26 06:09:24;;;;;;;76.37;29.40;;;3.30;94.30;;;;;;5043836;28;20231;-96
2022/01/26 06:11:50;;;;;;;87.23;34.43;;;3.30;94.30;;;;;;5043634;28;20236;-94
2022/01/26 06:14:16;;;;;;;65.03;24.33;;;3.30;94.30;;;;;;5044189;28;20197;-92
2022/01/26 06:16:41;;;;;;;77.57;28.00;;;3.30;94.20;;;;;;5044229;28;20168;-93
2022/01/26 06:19:07;;;;;;;81.10;32.73;;;3.40;94.20;;;;;;5043361;28;20204;-95
2022/01/26 06:21:33;;;;;;;86.00;33.03;;;3.30;94.20;;;;;;5044089;28;20228;-92
2022/01/26 06:23:58;;;;;;;61.17;23.73;;;3.40;94.20;;;;;;5044147;28;20210;-96
2022/01/26 06:26:24;;;;;;;82.50;30.17;;;3.30;94.20;;;;;;5044120;28;20168;-95
2022/01/26 06:28:50;;;;;;;79.20;30.53;;;3.30;94.20;;;;;;5043447;28;20260;-93
2022/01/26 06:31:17;;;;;;;77.87;29.70;;;3.30;94.20;;;;;;5043817;28;20171;-94
2022/01/26 06:33:46;;;;;;;69.43;28.40;;;3.30;94.10;;;;;;5043632;28;20253;-95
2022/01/26 06:36:14;;;;;;;61.67;24.87;;;3.30;94.20;;;;;;5043623;28;20165;-94
2022/01/26 06:38:41;;;;;;;75.27;30.33;;;3.30;94.20;;;;;;5043471;28;20177;-95
2022/01/26 06:41:07;;;;;;;77.53;30.37;;;3.30;94.20;;;;;;5042859;28;20188;-95
2022/01/26 06:43:34;;;;;;;62.83;26.67;;;3.30;94.10;;;;;;5043540;28;20176;-93
2022/01/26 06:46:04;;;;;;;78.27;31.70;;;3.30;94.20;;;;;;5043708;28;20169;-96
2022/01/26 06:48:58;;;;;;;58.57;24.70;;;3.30;94.00;;;;;;5042817;28;20199;-96
2022/01/26 06:51:24;;;;;;;59.53;24.53;;;3.30;94.00;;;;;;5043181;28;20172;-94
2022/01/26 06:53:50;;;;;;;69.10;25.63;;;3.30;93.90;;;;;;5043623;28;20191;-93
2022/01/26 06:56:15;;;;;;;69.67;27.33;;;3.40;93.90;;;;;;5043439;28;20172;-92
2022/01/26 06:58:42;;;;;;;58.37;25.80;;;3.30;93.90;;;;;;5043270;28;20253;-94
2022/01/26 07:01:08;;;;;;;69.03;29.37;;;3.30;93.80;;;;;;5043361;28;20171;-96
2022/01/26 07:03:34;;;;;;;71.00;29.60;;;3.30;93.70;;;;;;5043002;28;20161;-95
2022/01/26 07:05:59;;;;;;;65.63;27.20;;;3.30;93.70;;;;;;5042654;28;20195;-92
2022/01/26 07:08:25;;;;;;;78.70;29.17;;;3.30;93.70;;;;;;5042738;28;20251;-94
2022/01/26 07:10:53;;;;;;;43.57;18.00;;;3.30;93.70;;;;;;5042748;28;20179;-95
2022/01/26 07:13:19;;;;;;;60.20;25.93;;;3.30;93.70;;;;;;5042463;28;20177;-93
2022/01/26 07:21:25;;;;;;;76.80;30.93;;;3.30;93.80;;;;;;5059791;28;20147;-95
2022/01/26 07:23:51;;;;;;;72.97;31.90;;;3.30;93.90;;;;;;5042416;28;20184;-95
2022/01/26 07:26:17;;;;;;;75.83;32.43;;;3.30;93.90;;;;;;5041798;28;20172;-94
2022/01/26 07:28:43;;;;;;;64.23;26.43;;;3.30;93.90;;;;;;5041582;28;20227;-95
2022/01/26 07:31:10;;;;;;;74.47;28.80;;;3.30;93.90;;;;;;5042154;28;20189;-94
2022/01/26 07:33:37;;;;;;;66.70;27.70;;;3.30;93.90;;;;;;5041698;28;20180;-95
2022/01/26 07:36:03;;;;;;;87.40;33.27;;;3.30;93.90;;;;;;5042086;28;20164;-94
2022/01/26 07:38:31;;;;;;;79.80;32.80;;;3.30;93.80;;;;;;5041694;28;20256;-92
2022/01/26 07:40:56;;;;;;;72.77;28.17;;;3.30;93.70;;;;;;5040889;28;20181;-94
2022/01/26 07:43:22;;;;;;;76.93;31.90;;;3.30;93.80;;;;;;5041225;28;20164;-94
2022/01/26 07:45:48;;;;;;;71.53;30.63;;;3.30;93.70;;;;;;5042170;28;20180;-94
2022/01/26 07:48:13;;;;;;;72.63;31.13;;;3.30;93.70;;;;;;5041636;28;20204;-94
2022/01/26 07:50:39;;;;;;;75.07;32.93;;;3.30;93.70;;;;;;5041149;28;20214;-94
2022/01/26 07:53:05;;;;;;;76.10;30.97;;;3.20;93.60;;;;;;5041677;28;20268;-95
2022/01/26 07:55:31;;;;;;;76.77;28.77;;;3.20;93.60;;;;;;5042093;28;20169;-96
2022/01/26 07:57:57;;;;;;;76.33;32.37;;;3.20;93.60;;;;;;5042398;28;20188;-95
2022/01/26 08:00:24;;;;;;;75.47;30.93;;;3.30;93.70;;;;;;5042479;28;20173;-96
2022/01/26 08:02:50;;;;;;;85.13;33.80;;;3.20;93.60;;;;;;5042339;28;20236;-94
2022/01/26 08:05:17;;;;;;;61.00;26.40;;;3.20;93.70;;;;;;5039410;28;20183;-94
2022/01/26 08:07:43;;;;;;;76.77;31.50;;;3.20;93.70;;;;;;5039735;28;20211;-94
2022/01/26 08:10:10;;;;;;;81.40;32.97;;;3.20;93.70;;;;;;5042416;28;20211;-96
2022/01/26 08:12:39;;;;;;;60.27;23.97;;;3.20;93.70;;;;;;5039916;28;20185;-93
2022/01/26 08:15:07;;;;;;;78.10;33.27;;;3.20;93.70;;;;;;5039883;28;20153;-95
2022/01/26 08:17:35;;;;;;;82.57;33.57;;;3.30;93.80;;;;;;5058048;28;20248;-94
2022/01/26 08:20:05;;;;;;;82.20;35.17;;;3.20;93.80;;;;;;5041012;28;20232;-96
2022/01/26 08:22:32;;;;;;;79.63;33.90;;;3.20;93.90;;;;;;5041909;28;20187;-96
2022/01/26 08:24:59;;;;;;;78.00;32.70;;;3.20;93.80;;;;;;5059016;28;20251;-96
2022/01/26 08:27:27;;;;;;;59.07;24.70;;;3.20;93.80;;;;;;5041976;28;20217;-96
2022/01/26 08:30:00;;;;;;;65.90;26.47;;;3.20;93.80;;;;;;5041929;28;20230;-96
2022/01/26 08:32:26;;;;;;;81.13;30.47;;;3.20;93.80;;;;;;5042104;28;20186;-96
2022/01/26 08:34:52;;;;;;;92.33;37.60;;;3.10;93.70;;;;;;5042157;28;20232;-95
2022/01/26 08:37:20;;;;;;;69.27;31.13;;;3.20;93.70;;;;;;5041884;28;20168;-96
2022/01/26 08:39:45;;;;;;;82.50;33.90;;;3.10;93.60;;;;;;5041980;28;20187;-96
2022/01/26 08:42:11;;;;;;;87.13;32.97;;;3.20;93.60;;;;;;5041862;28;20239;-96
2022/01/26 08:44:37;;;;;;;58.33;26.97;;;3.20;93.70;;;;;;5041961;28;20165;-96
2022/01/26 08:47:05;;;;;;;94.13;36.20;;;3.20;93.80;;;;;;5041799;28;20172;-94
2022/01/26 08:49:31;;;;;;;90.30;35.07;;;3.20;93.70;;;;;;5041755;28;20206;-94
2022/01/26 08:51:57;;;;;;;90.47;37.80;;;3.20;93.70;;;;;;5046728;28;20176;-94
2022/01/26 08:54:23;;;;;;;94.90;36.00;;;3.20;93.80;;;;;;5048488;28;20161;-95
2022/01/26 08:56:50;;;;;;;87.80;35.70;;;3.10;93.70;;;;;;5048289;28;20168;-94
2022/01/26 08:59:17;;;;;;;76.17;29.80;;;3.20;93.60;;;;;;5048324;28;20195;-94
2022/01/26 09:01:43;;;;;;;90.87;35.97;;;3.20;93.50;;;;;;5048325;28;20157;-96
2022/01/26 09:04:09;;;;;;;90.13;35.37;;;3.20;93.50;;;;;;5048281;28;20232;-95
2022/01/26 09:06:39;;;;;;;84.37;33.63;;;3.10;93.40;;;;;;5046987;28;20247;-93
2022/01/26 09:09:07;;;;;;;64.07;26.90;;;3.10;93.40;;;;;;5047148;28;20453;-92
2022/01/26 09:11:36;;;;;;;90.13;34.63;;;3.10;93.40;;;;;;5047240;28;20419;-95
2022/01/26 09:14:17;;;;;;;96.73;39.37;;;3.10;93.30;;;;;;5047796;28;20184;-96
2022/01/26 09:16:44;;;;;;;98.13;36.20;;;3.10;93.30;;;;;;5213186;22;20215;-93
2022/01/26 11:47:30;;;;;;;97.93;36.67;;;2.90;94.00;;;;;;5036390;28;20190;-93
2022/01/26 11:50:05;;;;;;;84.67;27.27;;;3.00;94.00;;;;;;5015986;28;20210;-93
2022/01/26 11:52:35;;;;;;;102.93;35.43;;;3.00;94.20;;;;;;5010937;28;20184;-92
2022/01/26 11:55:07;;;;;;;107.20;39.03;;;2.90;94.10;;;;;;5012199;28;20180;-93
2022/01/26 16:19:12;;;;;;;80.77;32.67;;;3.80;94.90;;;;;;5025316;28;20252;-92
2022/01/26 16:44:20;;;;;;;82.77;29.27;;;3.90;94.90;;;;;;5298973;22;20204;-96
2022/01/26 17:03:21;;;;;;;80.73;27.40;;;4.00;94.90;;;;;;5060084;28;20136;-96
2022/01/26 17:25:11;;;;;;;121.87;39.90;;;4.10;94.80;;;;;;5063847;28;20125;-93
2022/01/26 18:33:01;;;;;;;86.60;31.77;;;4.40;94.60;;;;;;5060259;28;20156;-91
2022/01/26 18:49:12;;;;;;;121.77;44.27;;;4.50;94.40;;;;;;5058545;28;20184;-91
2022/01/26 18:49:17;;;;;;;136.20;44.70;;;4.50;94.40;;;;;;5048097;28;20224;-92
2022/01/26 18:51:57;;;;;;;105.90;39.53;;;4.40;94.30;;;;;;5052542;28;20189;-92
2022/01/26 18:54:26;;;;;;;97.17;35.10;;;4.50;94.30;;;;;;5055918;28;20180;-93
2022/01/26 18:56:54;;;;;;;85.93;34.43;;;4.50;94.30;;;;;;5058770;28;20184;-92
2022/01/26 18:59:21;;;;;;;120.00;40.30;;;4.50;94.20;;;;;;5056137;28;20205;-91
2022/01/26 19:01:47;;;;;;;98.07;37.97;;;4.50;94.20;;;;;;5057283;28;20185;-90
2022/01/26 19:04:13;;;;;;;111.50;38.73;;;4.50;94.20;;;;;;5058877;28;20245;-92
2022/01/26 19:06:42;;;;;;;108.63;39.20;;;4.50;94.20;;;;;;5046587;28;20193;-92
2022/01/26 19:09:08;;;;;;;112.43;41.17;;;4.60;94.10;;;;;;5058170;28;20214;-91
2022/01/26 19:11:33;;;;;;;99.47;39.10;;;4.60;94.10;;;;;;5047288;28;20250;-92
2022/01/26 19:14:01;;;;;;;98.27;39.97;;;4.60;94.10;;;;;;5059061;28;20168;-91
2022/01/26 19:16:43;;;;;;;99.13;39.80;;;4.60;94.00;;;;;;5057407;28;20166;-93
2022/01/26 19:19:25;;;;;;;80.13;34.70;;;4.60;93.90;;;;;;5052343;28;20202;-92
2022/01/26 19:24:39;;;;;;;87.70;29.47;;;4.60;93.70;;;;;;5055864;28;20233;-92
2022/01/26 19:27:13;;;;;;;94.10;36.87;;;4.70;93.70;;;;;;5050745;28;20177;-92
2022/01/26 19:53:14;;;;;;;57.67;25.07;;;4.80;93.20;;;;;;5044036;28;20645;-91
2022/01/26 19:55:39;;;;;;;81.43;33.47;;;4.90;93.20;;;;;;5037299;28;20197;-92
2022/01/26 19:58:07;;;;;;;45.23;19.73;;;4.80;93.20;;;;;;5044966;28;20246;-92
2022/01/26 20:00:38;;;;;;;60.43;29.80;;;4.80;93.20;;;;;;5050147;28;20191;-92
2022/01/26 20:03:04;;;;;;;52.73;18.53;;;4.90;93.20;;;;;;5054691;28;20190;-92
2022/01/26 20:05:34;;;;;;;67.30;29.67;;;4.80;93.20;;;;;;5058878;28;20210;-91
2022/01/26 20:08:07;;;;;;;50.87;23.77;;;4.80;93.20;;;;;;5058559;28;20251;-92
2022/01/26 20:10:35;;;;;;;56.40;27.17;;;4.80;93.30;;;;;;5058640;28;20188;-93
2022/01/26 20:13:03;;;;;;;46.53;19.37;;;4.80;93.20;;;;;;5056684;28;20169;-93
2022/01/26 20:15:30;;;;;;;68.35;29.23;;;4.80;93.30;;;;;;5047913;28;20421;-92
2022/01/26 20:17:57;;;;;;;65.63;29.00;;;4.90;93.50;;;;;;5048968;28;20207;-92
2022/01/26 20:20:24;;;;;;;58.40;28.67;;;4.90;93.40;;;;;;5054072;28;20180;-92
2022/01/26 20:22:49;;;;;;;61.13;27.30;;;4.90;93.40;;;;;;5053526;28;20181;-92
2022/01/26 20:25:17;;;;;;;59.10;27.17;;;4.80;93.50;;;;;;5050821;28;20173;-92
2022/01/26 20:27:43;;;;;;;52.17;22.97;;;4.80;93.60;;;;;;5043795;28;20209;-91
2022/01/26 20:30:14;;;;;;;40.77;19.93;;;4.80;93.70;;;;;;5039053;28;20204;-92
2022/01/26 20:32:41;;;;;;;52.33;24.93;;;4.80;93.80;;;;;;5034734;28;20170;-92
2022/01/26 20:35:08;;;;;;;56.43;27.80;;;4.90;93.90;;;;;;5050335;28;20213;-92
2022/01/26 20:37:34;;;;;;;57.47;25.00;;;4.80;94.10;;;;;;5049059;28;20204;-93
2022/01/26 20:40:02;;;;;;;59.10;24.50;;;4.80;94.10;;;;;;5047509;28;20207;-92
2022/01/26 20:42:28;;;;;;;43.70;19.33;;;4.80;94.10;;;;;;5048295;28;20177;-92
2022/01/26 20:44:53;;;;;;;63.50;26.17;;;4.80;94.10;;;;;;5046698;28;20237;-92
2022/01/26 20:47:19;;;;;;;51.97;23.87;;;4.80;94.20;;;;;;5042283;28;20178;-92
2022/01/26 20:49:45;;;;;;;60.03;25.47;;;4.80;94.30;;;;;;5042965;28;20244;-93
2022/01/26 20:52:10;;;;;;;53.87;26.10;;;4.80;94.40;;;;;;5056258;28;20149;-92
2022/01/26 20:54:36;;;;;;;46.70;22.50;;;4.80;94.40;;;;;;5042560;28;20182;-93
2022/01/26 20:57:03;;;;;;;50.30;23.93;;;4.80;94.40;;;;;;5040470;28;20269;-92
2022/01/26 20:59:29;;;;;;;42.57;18.30;;;4.80;94.40;;;;;;5042418;28;20249;-92
2022/01/26 21:01:54;;;;;;;63.87;24.80;;;4.80;94.50;;;;;;5048508;28;20261;-92
2022/01/26 21:04:20;;;;;;;52.10;21.33;;;4.80;94.40;;;;;;5055305;28;20228;-92
2022/01/26 21:06:46;;;;;;;51.73;22.97;;;4.80;94.40;;;;;;5057510;28;20177;-91
2022/01/26 21:09:12;;;;;;;55.73;23.87;;;4.80;94.40;;;;;;5042989;28;20730;-91
2022/01/26 21:11:37;;;;;;;59.30;24.03;;;4.80;94.50;;;;;;5049525;28;20177;-92
2022/01/26 21:14:03;;;;;;;67.63;30.40;;;4.80;94.50;;;;;;5058071;28;20170;-91
2022/01/26 21:16:29;;;;;;;59.27;24.37;;;4.80;94.50;;;;;;5058074;28;20186;-93
2022/01/26 21:18:57;;;;;;;49.60;23.83;;;4.80;94.60;;;;;;5058007;28;20178;-94
2022/01/26 21:21:24;;;;;;;67.53;26.97;;;4.80;94.60;;;;;;5058068;28;20149;-94
2022/01/26 21:23:50;;;;;;;55.53;24.97;;;4.80;94.60;;;;;;5058063;28;20162;-94
2022/01/26 21:26:16;;;;;;;38.00;17.83;;;4.80;94.60;;;;;;5057973;28;20155;-90
2022/01/26 21:28:42;;;;;;;59.27;27.30;;;4.80;94.60;;;;;;5057853;28;20205;-93
2022/01/26 21:31:08;;;;;;;52.40;20.00;;;4.80;94.60;;;;;;5057984;28;20188;-90
2022/01/26 21:33:36;;;;;;;65.57;29.03;;;4.80;94.50;;;;;;5057659;28;20196;-93
2022/01/26 21:36:04;;;;;;;63.70;28.50;;;4.80;94.60;;;;;;5057775;28;20214;-95
2022/01/26 21:38:30;;;;;;;65.50;30.20;;;4.80;94.60;;;;;;5057739;28;20170;-94
2022/01/26 21:43:49;;;;;;;66.53;27.87;;;4.80;94.70;;;;;;5114248;22;20217;-94
2022/01/26 21:46:16;;;;;;;63.67;26.73;;;4.80;94.70;;;;;;5022940;28;20141;-96
2022/01/26 21:48:42;;;;;;;67.93;29.13;;;4.80;94.70;;;;;;5021686;28;20193;-94
2022/01/26 21:51:10;;;;;;;67.77;30.33;;;4.90;94.70;;;;;;5021641;28;20227;-92
2022/01/26 21:53:42;;;;;;;76.00;32.07;;;4.90;94.70;;;;;;5021482;28;20150;-90
2022/01/26 21:56:08;;;;;;;64.83;26.33;;;4.90;94.60;;;;;;5021553;28;20163;-93
2022/01/26 21:58:33;;;;;;;76.93;32.83;;;4.90;94.70;;;;;;5098040;23;20208;-89
2022/01/26 22:01:02;;;;;;;67.30;31.87;;;4.90;94.70;;;;;;5059778;28;20159;-91
2022/01/26 22:03:28;;;;;;;73.87;31.47;;;4.80;94.70;;;;;;5059987;28;20182;-92
2022/01/26 22:05:54;;;;;;;56.97;25.50;;;4.90;94.70;;;;;;5061228;28;20185;-90
2022/01/26 22:08:20;;;;;;;78.90;35.23;;;4.90;94.70;;;;;;5061177;28;20225;-91
2022/01/26 22:10:45;;;;;;;76.27;33.20;;;4.90;94.70;;;;;;5061088;28;20300;-92
2022/01/26 22:13:11;;;;;;;71.70;32.93;;;4.90;94.70;;;;;;5060205;28;20177;-90
2022/01/26 22:15:37;;;;;;;69.60;29.90;;;4.90;94.70;;;;;;5058019;28;20262;-92
2022/01/26 22:18:03;;;;;;;75.43;35.13;;;4.90;94.60;;;;;;5058488;28;20221;-92
2022/01/26 22:20:29;;;;;;;67.97;30.17;;;4.80;94.60;;;;;;5057576;28;20177;-93
2022/01/26 22:22:55;;;;;;;79.77;34.33;;;4.90;94.70;;;;;;5048081;28;20186;-93
2022/01/26 22:25:26;;;;;;;83.27;31.83;;;4.80;94.60;;;;;;5045965;28;20173;-94
2022/01/26 22:27:57;;;;;;;74.83;33.37;;;4.80;94.70;;;;;;5058314;28;20195;-93
2022/01/26 22:30:28;;;;;;;72.57;31.50;;;4.90;94.70;;;;;;5050974;28;20222;-93
2022/01/26 22:32:56;;;;;;;56.60;23.77;;;4.90;94.70;;;;;;5045609;28;20174;-93
2022/01/26 22:35:22;;;;;;;40.07;18.47;;;4.90;94.60;;;;;;5047069;28;20206;-93
2022/01/26 22:37:53;;;;;;;89.63;35.37;;;4.90;94.60;;;;;;5046653;28;20210;-93
2022/01/26 22:40:22;;;;;;;85.10;34.93;;;4.90;94.50;;;;;;5037543;28;20173;-93
2022/01/26 22:42:48;;;;;;;61.03;27.67;;;4.90;94.50;;;;;;5059075;28;20190;-93
2022/01/26 22:45:14;;;;;;;82.63;35.63;;;4.90;94.50;;;;;;5057395;28;20221;-94
2022/01/26 22:47:40;;;;;;;79.50;33.20;;;4.90;94.50;;;;;;5055648;28;20209;-94
2022/01/26 22:50:06;;;;;;;77.80;33.73;;;4.90;94.60;;;;;;5054312;28;20242;-94
2022/01/26 22:52:31;;;;;;;74.53;31.37;;;4.90;94.60;;;;;;5048485;28;20199;-94
2022/01/26 22:54:57;;;;;;;84.13;37.67;;;4.90;94.60;;;;;;5053484;28;20179;-93
2022/01/26 22:57:23;;;;;;;86.77;36.80;;;4.90;94.60;;;;;;5047287;28;20185;-91
2022/01/26 22:59:49;;;;;;;99.13;37.93;;;4.90;94.60;;;;;;5047475;28;20205;-93
2022/01/26 23:05:03;;;;;;;62.50;27.70;;;4.90;94.50;;;;;;5050324;28;20177;-94
2022/01/26 23:07:29;;;;;;;80.97;35.33;;;4.90;94.50;;;;;;5043721;28;20203;-93
2022/01/26 23:09:55;;;;;;;73.07;32.60;;;5.00;94.50;;;;;;5049102;28;20206;-94
2022/01/26 23:12:20;;;;;;;84.20;39.33;;;5.00;94.50;;;;;;5035116;28;20184;-92
2022/01/26 23:14:46;;;;;;;81.50;39.73;;;5.00;94.50;;;;;;5034622;28;20183;-93
2022/01/26 23:17:12;;;;;;;72.93;30.57;;;5.00;94.40;;;;;;5034153;28;20236;-92
2022/01/26 23:19:37;;;;;;;56.80;24.50;;;5.00;94.30;;;;;;5034106;28;20183;-93
2022/01/26 23:22:03;;;;;;;78.37;36.73;;;5.00;94.30;;;;;;5033691;28;20647;-92
2022/01/26 23:24:36;;;;;;;83.80;35.17;;;5.00;94.30;;;;;;5033781;28;20210;-92
2022/01/26 23:27:12;;;;;;;75.87;33.97;;;5.00;94.20;;;;;;5034822;28;20173;-92
2022/01/26 23:30:06;;;;;;;96.03;39.20;;;5.00;94.20;;;;;;5035640;28;20202;-93
2022/01/26 23:35:28;;;;;;;94.63;41.40;;;5.10;94.20;;;;;;5035853;28;20166;-93
2022/01/26 23:38:09;;;;;;;86.90;35.70;;;5.10;94.20;;;;;;5035601;28;20197;-93
2022/01/26 23:40:53;;;;;;;88.70;40.53;;;5.10;94.10;;;;;;5035136;28;20201;-92
